Time;durP1;ratioP1;P1;durP2;ratioP2;P2;SDS_P1;SDS_P2;PMS_P1;PMS_P2;Temp;Humidity;BMP_temperature;BMP_pressure;BME280_temperature;BME280_humidity;BME280_pressure;Samples;Min_cycle;Max_cycle;Signal;HPM_P1;HPM_P2
2022/03/28 00:01:46;;;;;;;15.57;7.63;;;11.30;41.50;;;;;;7396829;19;20408;-92
2022/03/28 00:04:16;;;;;;;16.37;8.50;;;11.30;41.70;;;;;;7394468;19;20400;-93
2022/03/28 00:06:47;;;;;;;9.57;6.63;;;11.10;41.70;;;;;;7396122;19;20412;-91
2022/03/28 00:09:17;;;;;;;12.20;6.87;;;11.10;41.90;;;;;;7397815;19;20459;-92
2022/03/28 00:11:49;;;;;;;15.17;8.47;;;11.10;42.00;;;;;;7395241;19;20413;-92
2022/03/28 00:14:21;;;;;;;13.87;6.80;;;11.00;42.00;;;;;;7398938;19;20419;-91
2022/03/28 00:16:50;;;;;;;18.87;7.37;;;11.00;41.90;;;;;;7395661;19;20412;-92
2022/03/28 00:19:25;;;;;;;11.67;7.03;;;10.90;41.90;;;;;;7393880;19;20920;-91
2022/03/28 00:21:56;;;;;;;18.37;7.57;;;10.90;42.40;;;;;;7397756;19;20368;-92
2022/03/28 00:24:26;;;;;;;11.67;7.30;;;10.90;42.40;;;;;;7397229;19;20400;-87
2022/03/28 00:26:57;;;;;;;12.67;7.47;;;10.90;42.60;;;;;;7393661;19;20428;-89
2022/03/28 00:29:29;;;;;;;13.83;7.23;;;10.80;42.30;;;;;;7392675;19;20415;-91
2022/03/28 00:32:01;;;;;;;13.90;7.53;;;10.80;42.40;;;;;;7397316;19;20403;-91
2022/03/28 00:34:35;;;;;;;19.15;6.80;;;10.70;42.70;;;;;;7395548;19;20442;-90
2022/03/28 00:37:05;;;;;;;15.53;8.87;;;10.70;42.90;;;;;;7397813;19;20615;-87
2022/03/28 00:39:35;;;;;;;15.87;7.77;;;10.80;42.80;;;;;;7396389;19;20390;-90
2022/03/28 00:42:07;;;;;;;18.17;7.17;;;10.80;43.10;;;;;;7398017;19;20412;-90
2022/03/28 00:44:42;;;;;;;16.73;7.90;;;10.80;43.20;;;;;;7395703;19;20393;-91
2022/03/28 00:47:11;;;;;;;15.90;7.00;;;10.70;43.50;;;;;;7391183;19;21594;-89
2022/03/28 00:49:41;;;;;;;15.47;8.27;;;10.60;43.60;;;;;;7384602;19;20396;-91
2022/03/28 00:52:14;;;;;;;11.93;7.57;;;10.60;43.70;;;;;;7387844;19;20428;-90
2022/03/28 00:54:46;;;;;;;14.70;8.57;;;10.50;43.80;;;;;;7383067;19;20187;-89
2022/03/28 00:57:16;;;;;;;11.33;7.70;;;10.50;44.00;;;;;;7384125;19;20432;-88
2022/03/28 00:59:53;;;;;;;21.10;9.73;;;10.40;44.10;;;;;;7382726;19;20404;-90
2022/03/28 01:02:23;;;;;;;22.47;9.97;;;10.40;44.40;;;;;;7391683;19;21378;-89
2022/03/28 01:04:55;;;;;;;14.87;8.30;;;10.40;44.40;;;;;;7386802;19;20404;-90
2022/03/28 01:07:25;;;;;;;24.30;11.00;;;10.50;44.50;;;;;;7382309;19;20387;-90
2022/03/28 01:09:59;;;;;;;18.50;10.00;;;10.50;44.60;;;;;;7384026;19;20463;-90
2022/03/28 01:12:29;;;;;;;17.47;9.00;;;10.50;44.60;;;;;;7388067;19;20383;-90
2022/03/28 01:15:05;;;;;;;14.50;7.70;;;10.40;44.60;;;;;;7383881;19;20415;-90
2022/03/28 01:20:19;;;;;;;15.53;9.20;;;10.30;45.00;;;;;;7388762;19;20445;-90
2022/03/28 01:22:54;;;;;;;12.67;7.07;;;10.30;45.10;;;;;;7385972;19;20400;-90
2022/03/28 01:25:25;;;;;;;13.70;6.93;;;10.30;45.10;;;;;;7404062;19;20395;-90
2022/03/28 01:27:55;;;;;;;17.20;8.03;;;10.20;45.30;;;;;;7405682;19;20437;-88
2022/03/28 01:30:26;;;;;;;12.67;7.37;;;10.20;45.50;;;;;;7405034;19;20953;-91
2022/03/28 01:32:59;;;;;;;17.88;8.60;;;10.10;45.50;;;;;;7404949;19;20387;-91
2022/03/28 01:35:34;;;;;;;15.50;7.70;;;10.10;45.60;;;;;;7403136;19;20199;-90
2022/03/28 01:38:11;;;;;;;14.80;7.95;;;10.20;45.40;;;;;;7405382;19;20396;-91
2022/03/28 01:40:45;;;;;;;12.60;6.97;;;10.20;45.40;;;;;;7404934;19;20160;-89
2022/03/28 01:43:17;;;;;;;14.13;9.00;;;10.10;45.60;;;;;;7406776;19;20454;-91
2022/03/28 01:45:47;;;;;;;15.43;7.40;;;10.00;45.70;;;;;;7417497;19;20376;-94
2022/03/28 01:48:17;;;;;;;16.75;8.90;;;9.80;46.80;;;;;;7426558;19;20136;-93
2022/03/28 01:50:46;;;;;;;13.63;8.60;;;9.80;46.70;;;;;;7420868;19;20186;-92
2022/03/28 01:53:18;;;;;;;12.52;8.25;;;9.80;46.80;;;;;;7432733;19;20441;-91
2022/03/28 01:55:48;;;;;;;17.77;8.32;;;9.80;47.10;;;;;;7428270;19;20177;-92
2022/03/28 01:58:20;;;;;;;11.80;6.83;;;9.80;46.70;;;;;;7430052;19;20140;-91
2022/03/28 02:00:50;;;;;;;13.23;7.45;;;9.80;46.60;;;;;;7424756;19;20453;-92
2022/03/28 02:03:21;;;;;;;14.60;8.55;;;9.70;47.20;;;;;;7399807;19;20140;-92
2022/03/28 02:05:51;;;;;;;14.00;8.55;;;9.70;47.30;;;;;;7399543;19;20140;-93
2022/03/28 02:08:23;;;;;;;12.10;8.07;;;9.70;47.10;;;;;;7398612;19;20150;-95
2022/03/28 02:10:53;;;;;;;12.63;7.65;;;9.70;47.30;;;;;;7399204;19;20140;-92
2022/03/28 02:13:25;;;;;;;14.73;7.65;;;9.70;47.30;;;;;;7396671;19;20140;-91
2022/03/28 02:15:55;;;;;;;13.90;8.02;;;9.60;47.40;;;;;;7393531;19;20170;-91
2022/03/28 02:18:27;;;;;;;13.23;7.85;;;9.60;47.50;;;;;;7393380;19;20154;-91
2022/03/28 02:20:56;;;;;;;16.83;7.72;;;9.60;47.50;;;;;;7395250;19;20826;-90
2022/03/28 02:23:29;;;;;;;14.00;8.15;;;9.60;47.40;;;;;;7390767;19;20178;-91
2022/03/28 02:25:59;;;;;;;18.48;8.00;;;9.60;47.20;;;;;;7391325;19;20139;-90
2022/03/28 02:28:29;;;;;;;15.07;8.18;;;9.50;47.30;;;;;;7388564;19;20151;-91
2022/03/28 02:31:00;;;;;;;12.40;7.47;;;9.60;47.00;;;;;;7389186;19;20135;-91
2022/03/28 02:33:30;;;;;;;11.57;7.28;;;9.50;47.10;;;;;;7389359;19;20419;-92
2022/03/28 02:36:13;;;;;;;14.57;7.80;;;9.50;46.80;;;;;;7374396;19;20498;-39
2022/03/28 02:38:42;;;;;;;15.40;7.63;;;9.60;47.00;;;;;;7377703;19;20133;-40
2022/03/28 02:41:12;;;;;;;14.40;7.50;;;9.50;47.40;;;;;;7374485;19;20747;-40
2022/03/28 02:43:41;;;;;;;19.08;7.88;;;9.50;47.40;;;;;;7370941;19;20463;-40
2022/03/28 02:46:11;;;;;;;12.40;8.00;;;9.40;47.50;;;;;;7379569;19;22742;-40
2022/03/28 02:48:40;;;;;;;12.80;8.00;;;9.40;47.60;;;;;;7371469;19;20430;-38
2022/03/28 02:51:12;;;;;;;13.23;7.57;;;9.40;47.80;;;;;;7371722;19;20375;-39
2022/03/28 02:53:42;;;;;;;13.57;8.07;;;9.30;47.50;;;;;;7383337;19;20186;-39
2022/03/28 02:56:11;;;;;;;14.40;7.40;;;9.30;47.90;;;;;;7370402;19;20479;-39
2022/03/28 02:58:41;;;;;;;16.55;7.70;;;9.20;47.80;;;;;;7388176;19;20433;-39
2022/03/28 03:01:10;;;;;;;14.68;7.65;;;9.20;47.90;;;;;;7366259;19;20186;-39
2022/03/28 03:03:40;;;;;;;12.32;7.10;;;9.20;48.00;;;;;;7406431;19;20474;-39
2022/03/28 03:06:12;;;;;;;16.75;7.70;;;9.30;48.10;;;;;;7375959;19;20146;-39
2022/03/28 03:08:42;;;;;;;15.93;7.72;;;9.20;48.70;;;;;;7382289;19;20839;-39
2022/03/28 03:11:12;;;;;;;14.88;7.60;;;9.00;48.20;;;;;;7372411;19;20119;-39
2022/03/28 03:13:42;;;;;;;13.02;6.80;;;9.00;48.50;;;;;;7375829;19;21193;-39
2022/03/28 03:16:11;;;;;;;15.38;7.25;;;9.00;48.70;;;;;;7365404;19;20127;-39
2022/03/28 03:18:41;;;;;;;11.98;7.63;;;9.00;49.20;;;;;;7392899;19;20808;-39
2022/03/28 03:21:13;;;;;;;15.27;8.27;;;9.00;48.40;;;;;;7386062;19;20548;-39
2022/03/28 03:23:42;;;;;;;14.93;7.50;;;9.00;48.50;;;;;;7387500;19;20885;-39
2022/03/28 03:26:12;;;;;;;13.95;8.32;;;9.00;48.40;;;;;;7372659;19;20698;-39
2022/03/28 03:28:41;;;;;;;16.50;7.68;;;9.00;48.40;;;;;;7384972;19;20152;-39
2022/03/28 03:31:11;;;;;;;15.90;7.35;;;8.90;48.40;;;;;;7395184;19;20135;-39
2022/03/28 03:33:40;;;;;;;11.50;7.55;;;8.90;48.50;;;;;;7371984;19;20147;-39
2022/03/28 03:36:15;;;;;;;12.48;7.55;;;8.90;48.70;;;;;;7392971;19;20139;-39
2022/03/28 03:38:47;;;;;;;11.60;6.90;;;8.90;48.90;;;;;;7388434;19;20133;-39
2022/03/28 03:41:19;;;;;;;14.57;8.45;;;8.80;48.90;;;;;;7369897;19;20130;-39
2022/03/28 03:43:48;;;;;;;12.00;7.25;;;8.70;49.10;;;;;;7401717;19;20487;-39
2022/03/28 03:46:20;;;;;;;14.73;6.85;;;8.80;49.50;;;;;;7353145;19;20171;-39
2022/03/28 03:48:49;;;;;;;12.73;8.23;;;8.80;49.60;;;;;;7347095;19;20136;-41
2022/03/28 03:51:21;;;;;;;16.33;7.50;;;8.70;49.60;;;;;;7346700;19;20185;-39
2022/03/28 03:53:51;;;;;;;12.40;7.13;;;8.70;49.70;;;;;;7347878;19;20141;-38
2022/03/28 03:56:21;;;;;;;12.90;7.63;;;8.70;49.60;;;;;;7345823;19;20151;-39
2022/03/28 03:58:50;;;;;;;14.98;7.50;;;8.60;49.50;;;;;;7342992;19;20692;-38
2022/03/28 04:01:21;;;;;;;16.83;7.43;;;8.60;49.70;;;;;;7346741;19;20223;-38
2022/03/28 04:03:50;;;;;;;12.98;8.35;;;8.50;50.10;;;;;;7360678;19;20133;-38
2022/03/28 04:06:22;;;;;;;17.05;8.40;;;8.50;50.20;;;;;;7346560;19;20140;-38
2022/03/28 04:08:52;;;;;;;12.15;7.20;;;8.50;50.10;;;;;;7339918;19;20135;-39
2022/03/28 04:11:24;;;;;;;13.38;7.63;;;8.50;49.90;;;;;;7343738;19;20127;-38
2022/03/28 04:13:57;;;;;;;13.70;7.45;;;8.50;49.90;;;;;;7345546;19;20167;-39
2022/03/28 04:16:29;;;;;;;15.00;9.05;;;8.50;50.10;;;;;;7344714;19;20143;-38
2022/03/28 04:18:58;;;;;;;11.93;7.95;;;8.50;50.20;;;;;;7346158;19;20128;-38
2022/03/28 04:21:30;;;;;;;13.88;7.88;;;8.50;50.50;;;;;;7345546;19;20127;-39
2022/03/28 04:24:00;;;;;;;10.75;7.40;;;8.30;50.80;;;;;;7345058;19;20219;-39
2022/03/28 04:26:29;;;;;;;11.55;7.78;;;8.30;50.90;;;;;;7361124;19;20143;-39
2022/03/28 04:30:44;;;;;;;15.35;8.80;;;8.30;50.70;;;;;;7394249;19;20454;-40
2022/03/28 04:33:14;;;;;;;14.40;8.43;;;8.20;51.10;;;;;;7387034;19;20137;-40
2022/03/28 04:35:44;;;;;;;15.52;8.20;;;8.20;50.80;;;;;;7409743;19;20868;-39
2022/03/28 04:38:16;;;;;;;13.95;8.82;;;8.30;51.20;;;;;;7404554;19;20515;-39
2022/03/28 04:40:46;;;;;;;18.58;10.18;;;8.30;51.40;;;;;;7406807;19;20202;-39
2022/03/28 04:43:18;;;;;;;14.25;7.97;;;8.30;51.80;;;;;;7409999;19;20130;-39
2022/03/28 04:45:52;;;;;;;11.68;7.07;;;8.30;51.30;;;;;;7399406;19;20155;-39
2022/03/28 04:48:23;;;;;;;15.18;7.47;;;8.30;51.40;;;;;;7404286;19;20503;-39
2022/03/28 04:50:52;;;;;;;13.02;7.80;;;8.30;51.60;;;;;;7407302;19;20195;-40
2022/03/28 04:53:22;;;;;;;16.70;8.60;;;8.30;51.70;;;;;;7406084;19;20131;-39
2022/03/28 04:55:51;;;;;;;16.05;8.30;;;8.20;51.60;;;;;;7408608;19;20146;-40
2022/03/28 04:58:23;;;;;;;18.98;10.25;;;8.20;52.00;;;;;;7376210;19;20273;-40
2022/03/28 05:00:55;;;;;;;15.13;9.55;;;8.20;51.80;;;;;;7402017;19;20543;-40
2022/03/28 05:03:27;;;;;;;15.85;9.07;;;8.20;51.70;;;;;;7404199;19;20137;-40
2022/03/28 05:05:59;;;;;;;17.08;9.63;;;8.20;51.20;;;;;;7407758;19;20226;-40
2022/03/28 05:08:31;;;;;;;16.15;9.55;;;8.20;51.00;;;;;;7409068;19;20144;-40
2022/03/28 05:11:03;;;;;;;13.95;8.32;;;8.20;51.20;;;;;;7403675;19;20217;-40
2022/03/28 05:13:32;;;;;;;30.15;9.48;;;8.20;51.50;;;;;;7402863;19;20141;-40
2022/03/28 05:16:05;;;;;;;12.93;8.38;;;8.20;51.50;;;;;;7403018;19;20145;-40
2022/03/28 05:18:36;;;;;;;15.18;9.13;;;8.20;51.60;;;;;;7406402;19;20135;-40
2022/03/28 05:21:08;;;;;;;15.05;8.70;;;8.20;51.40;;;;;;7404540;19;20131;-40
2022/03/28 05:23:38;;;;;;;16.55;9.40;;;8.20;51.10;;;;;;7406764;19;20494;-40
2022/03/28 05:26:09;;;;;;;16.67;8.73;;;8.20;51.60;;;;;;7406273;19;20151;-40
2022/03/28 05:28:43;;;;;;;13.75;7.55;;;8.30;51.70;;;;;;7402164;19;20646;-40
2022/03/28 05:31:15;;;;;;;14.20;8.73;;;8.20;51.60;;;;;;7399349;19;20145;-40
2022/03/28 05:33:45;;;;;;;20.63;10.55;;;8.20;51.20;;;;;;7397245;19;20259;-40
2022/03/28 05:36:18;;;;;;;18.10;10.05;;;8.10;51.60;;;;;;7395658;19;20535;-41
2022/03/28 05:38:50;;;;;;;17.95;9.18;;;8.10;52.00;;;;;;7407911;19;20127;-40
2022/03/28 05:41:19;;;;;;;21.83;9.45;;;8.10;51.50;;;;;;7369955;19;20127;-38
2022/03/28 05:43:49;;;;;;;20.85;9.15;;;8.10;51.70;;;;;;7373436;19;20128;-38
2022/03/28 05:46:25;;;;;;;17.38;10.68;;;8.20;51.70;;;;;;7374149;19;20131;-38
2022/03/28 05:48:54;;;;;;;15.32;8.52;;;8.20;51.70;;;;;;7375068;19;20203;-38
2022/03/28 05:51:24;;;;;;;17.52;9.75;;;8.30;51.40;;;;;;7367791;19;20140;-38
2022/03/28 05:53:58;;;;;;;21.98;9.10;;;8.30;51.70;;;;;;7376403;19;20243;-38
2022/03/28 05:56:28;;;;;;;29.58;11.20;;;8.20;51.50;;;;;;7380111;19;20128;-37
2022/03/28 05:59:02;;;;;;;13.10;8.32;;;8.20;51.70;;;;;;7376881;19;20862;-37
2022/03/28 06:01:35;;;;;;;17.70;9.73;;;8.20;51.70;;;;;;7372168;19;20128;-38
2022/03/28 06:04:05;;;;;;;18.33;9.65;;;8.30;51.50;;;;;;7365106;19;20134;-37
2022/03/28 06:06:35;;;;;;;18.35;10.40;;;8.30;51.30;;;;;;7368444;19;20623;-37
2022/03/28 06:09:07;;;;;;;17.08;9.38;;;8.20;51.80;;;;;;7373245;19;20131;-38
2022/03/28 06:11:39;;;;;;;20.55;9.15;;;8.20;52.00;;;;;;7373405;19;20131;-37
2022/03/28 06:14:09;;;;;;;16.70;8.73;;;8.10;51.90;;;;;;7375900;19;20165;-37
2022/03/28 06:16:44;;;;;;;16.25;8.93;;;7.90;52.30;;;;;;7371984;19;20152;-38
2022/03/28 06:19:14;;;;;;;17.33;9.70;;;7.90;52.60;;;;;;7380947;19;20144;-37
2022/03/28 06:21:43;;;;;;;16.98;9.25;;;8.00;52.50;;;;;;7373308;19;20161;-38
2022/03/28 06:24:12;;;;;;;16.17;8.63;;;8.00;52.00;;;;;;7365491;19;20152;-37
2022/03/28 06:26:42;;;;;;;21.50;9.90;;;7.90;52.40;;;;;;7365955;19;20131;-38
2022/03/28 06:29:14;;;;;;;18.90;9.88;;;8.00;52.30;;;;;;7365960;19;20155;-38
2022/03/28 06:31:46;;;;;;;18.85;9.10;;;8.00;52.20;;;;;;7353791;19;22207;-38
2022/03/28 06:34:16;;;;;;;19.25;10.00;;;8.20;52.10;;;;;;7370105;19;20635;-38
2022/03/28 06:36:47;;;;;;;18.38;9.15;;;8.30;51.90;;;;;;7371052;19;20132;-38
2022/03/28 06:39:17;;;;;;;14.65;7.85;;;8.40;51.70;;;;;;7372841;19;20136;-38
2022/03/28 06:41:52;;;;;;;16.65;8.48;;;8.50;51.70;;;;;;7375438;19;20162;-38
2022/03/28 06:44:22;;;;;;;15.30;9.15;;;8.50;51.50;;;;;;7369878;19;20127;-37
2022/03/28 06:46:54;;;;;;;13.68;8.38;;;8.60;51.70;;;;;;7374833;19;20154;-38
2022/03/28 06:49:24;;;;;;;15.75;9.77;;;8.80;51.00;;;;;;7377712;19;20135;-38
2022/03/28 06:51:53;;;;;;;16.40;8.77;;;9.10;51.10;;;;;;7375388;19;20136;-38
2022/03/28 06:54:22;;;;;;;16.70;10.43;;;9.40;50.60;;;;;;7370351;19;20135;-38
2022/03/28 06:56:54;;;;;;;17.00;9.90;;;9.70;50.40;;;;;;7376264;19;20155;-38
2022/03/28 06:59:24;;;;;;;14.32;8.80;;;9.90;49.90;;;;;;7375715;19;20265;-38
2022/03/28 07:01:59;;;;;;;16.10;9.70;;;10.10;48.60;;;;;;7371986;19;20136;-38
2022/03/28 07:04:29;;;;;;;19.00;10.20;;;10.30;47.80;;;;;;7377656;19;20781;-38
2022/03/28 07:06:58;;;;;;;18.83;11.13;;;10.50;47.10;;;;;;7373271;19;20364;-38
2022/03/28 07:09:31;;;;;;;21.47;10.90;;;10.70;46.80;;;;;;7378463;19;20423;-38
2022/03/28 07:12:01;;;;;;;18.37;10.03;;;10.90;46.30;;;;;;7374093;19;20388;-38
2022/03/28 07:14:31;;;;;;;16.23;9.83;;;11.00;45.30;;;;;;7381019;19;20719;-38
2022/03/28 07:17:03;;;;;;;16.63;9.63;;;11.10;45.20;;;;;;7373653;19;20416;-38
2022/03/28 07:19:36;;;;;;;15.77;9.53;;;11.20;44.80;;;;;;7379751;19;20536;-41
2022/03/28 07:22:10;;;;;;;13.70;8.83;;;11.50;45.50;;;;;;7378396;19;20503;-41
2022/03/28 07:24:42;;;;;;;15.73;9.87;;;11.70;46.00;;;;;;7376616;19;20376;-41
2022/03/28 07:27:14;;;;;;;18.77;10.50;;;11.80;44.90;;;;;;7379184;19;20474;-41
2022/03/28 07:29:44;;;;;;;16.83;9.67;;;12.00;45.00;;;;;;7374298;19;20841;-41
2022/03/28 07:32:18;;;;;;;23.17;10.77;;;12.20;45.10;;;;;;7375099;19;20372;-41
2022/03/28 07:34:51;;;;;;;18.10;10.33;;;12.20;44.90;;;;;;7377548;19;20389;-41
2022/03/28 07:37:20;;;;;;;16.10;10.70;;;12.40;43.60;;;;;;7375846;19;20731;-41
2022/03/28 07:39:52;;;;;;;14.67;10.10;;;12.60;43.50;;;;;;7375795;19;20380;-41
2022/03/28 07:42:22;;;;;;;21.83;11.30;;;12.70;42.70;;;;;;7376561;19;20373;-41
2022/03/28 07:44:55;;;;;;;19.87;11.47;;;12.80;42.50;;;;;;7376343;19;20402;-41
2022/03/28 07:47:28;;;;;;;20.00;10.90;;;13.00;42.30;;;;;;7379224;19;20377;-41
2022/03/28 07:49:59;;;;;;;24.90;12.60;;;13.10;42.00;;;;;;7378238;19;20628;-42
2022/03/28 07:52:29;;;;;;;18.70;11.50;;;13.30;41.20;;;;;;7372250;19;21009;-41
2022/03/28 07:55:00;;;;;;;23.23;12.10;;;13.40;40.90;;;;;;7376620;19;20809;-42
2022/03/28 07:57:30;;;;;;;26.17;11.13;;;13.60;40.50;;;;;;7377796;19;20753;-42
2022/03/28 08:00:00;;;;;;;20.90;12.53;;;13.60;40.30;;;;;;7368283;19;21079;-41
2022/03/28 08:02:32;;;;;;;20.23;11.83;;;13.60;40.00;;;;;;7376663;19;20942;-41
2022/03/28 08:05:04;;;;;;;21.63;12.57;;;13.60;39.90;;;;;;7373256;19;20893;-41
2022/03/28 08:07:36;;;;;;;17.63;11.63;;;13.60;39.70;;;;;;7374497;19;20786;-40
2022/03/28 08:10:06;;;;;;;22.27;11.70;;;13.60;39.60;;;;;;7372386;19;20410;-40
2022/03/28 08:12:37;;;;;;;22.47;11.90;;;13.70;39.60;;;;;;7375500;19;20478;-41
2022/03/28 08:15:10;;;;;;;21.57;12.33;;;13.70;39.80;;;;;;7374448;19;20379;-40
2022/03/28 08:17:42;;;;;;;19.57;11.77;;;13.80;39.70;;;;;;7373301;19;20383;-41
2022/03/28 08:20:14;;;;;;;21.80;11.93;;;13.90;39.50;;;;;;7371834;19;20559;-40
2022/03/28 08:22:49;;;;;;;26.50;13.80;;;13.90;39.50;;;;;;7375648;19;20760;-41
2022/03/28 08:25:19;;;;;;;27.37;14.57;;;14.00;39.60;;;;;;7377080;19;20368;-41
2022/03/28 08:27:49;;;;;;;25.10;13.80;;;14.20;39.50;;;;;;7372038;19;20387;-41
2022/03/28 08:30:19;;;;;;;21.73;12.07;;;14.80;39.30;;;;;;7369977;19;20458;-41
2022/03/28 08:32:51;;;;;;;20.03;11.83;;;15.40;38.40;;;;;;7374236;19;20376;-41
2022/03/28 08:35:20;;;;;;;23.97;11.77;;;16.10;37.60;;;;;;7373758;19;20953;-41
2022/03/28 08:37:50;;;;;;;29.97;18.13;;;16.70;36.80;;;;;;7377063;19;20870;-41
2022/03/28 08:40:20;;;;;;;23.30;12.73;;;17.40;35.90;;;;;;7374647;19;20364;-41
2022/03/28 08:42:50;;;;;;;22.20;13.07;;;17.90;35.10;;;;;;7376975;19;20492;-42
2022/03/28 08:45:20;;;;;;;21.27;13.17;;;18.40;34.10;;;;;;7375231;19;20410;-42
2022/03/28 08:47:58;;;;;;;15.57;11.73;;;18.90;33.50;;;;;;7372258;19;20380;-41
2022/03/28 08:50:27;;;;;;;21.90;12.80;;;19.30;32.30;;;;;;7359864;19;20380;-42
2022/03/28 08:52:57;;;;;;;20.33;13.47;;;19.80;32.20;;;;;;7368873;19;20391;-44
2022/03/28 08:55:29;;;;;;;174.53;32.93;;;20.20;31.30;;;;;;7369776;19;20409;-44
2022/03/28 08:57:58;;;;;;;22.27;14.77;;;20.70;30.80;;;;;;7372121;19;21033;-43
2022/03/28 09:00:28;;;;;;;21.20;13.30;;;21.30;30.30;;;;;;7365140;19;20418;-42
2022/03/28 09:03:02;;;;;;;22.57;14.50;;;22.00;29.20;;;;;;7373992;19;20371;-43
2022/03/28 09:05:33;;;;;;;23.00;15.80;;;22.70;28.70;;;;;;7362879;19;20385;-44
2022/03/28 09:08:08;;;;;;;23.43;15.27;;;23.50;27.80;;;;;;7362925;19;20369;-43
2022/03/28 09:10:40;;;;;;;22.20;13.97;;;24.00;27.20;;;;;;7361919;19;20391;-44
2022/03/28 09:13:16;;;;;;;20.07;13.20;;;24.70;26.50;;;;;;7362940;19;20372;-43
2022/03/28 09:15:55;;;;;;;20.67;14.23;;;25.20;25.90;;;;;;7374169;19;20376;-43
2022/03/28 09:18:32;;;;;;;21.20;14.37;;;25.70;25.30;;;;;;7377032;19;20399;-43
2022/03/28 09:21:04;;;;;;;25.37;15.00;;;26.30;24.50;;;;;;7378993;19;20993;-43
2022/03/28 09:23:40;;;;;;;19.10;13.90;;;26.60;24.20;;;;;;7373066;19;20689;-43
2022/03/28 09:26:18;;;;;;;22.70;13.83;;;26.40;23.90;;;;;;7374670;19;20387;-43
2022/03/28 09:28:53;;;;;;;21.50;15.23;;;27.00;23.20;;;;;;7381759;19;20508;-43
2022/03/28 09:31:25;;;;;;;23.77;14.47;;;27.90;22.80;;;;;;7368152;19;20376;-43
2022/03/28 09:34:14;;;;;;;18.00;14.63;;;28.10;22.00;;;;;;7379421;19;20396;-44
2022/03/28 09:36:48;;;;;;;18.17;14.40;;;28.10;22.10;;;;;;7369687;19;20384;-43
2022/03/28 09:39:23;;;;;;;19.23;14.00;;;28.20;21.70;;;;;;7373538;19;20388;-43
2022/03/28 09:42:05;;;;;;;25.30;15.17;;;28.40;21.80;;;;;;7374567;19;20383;-43
2022/03/28 09:44:39;;;;;;;22.73;14.27;;;28.50;21.20;;;;;;7378405;19;21009;-44
2022/03/28 09:47:13;;;;;;;22.97;14.80;;;29.30;21.00;;;;;;7376196;19;20391;-44
2022/03/28 09:49:50;;;;;;;21.03;15.37;;;29.80;20.80;;;;;;7374186;19;20416;-44
2022/03/28 09:52:21;;;;;;;22.27;15.07;;;31.00;20.40;;;;;;7376305;19;20381;-43
2022/03/28 09:54:54;;;;;;;20.73;15.77;;;31.90;19.20;;;;;;7377541;19;20372;-43
2022/03/28 09:57:26;;;;;;;22.23;15.50;;;32.20;18.80;;;;;;7379641;19;20431;-43
2022/03/28 10:00:10;;;;;;;16.17;12.50;;;32.70;18.60;;;;;;7374892;19;20412;-43
2022/03/28 10:02:40;;;;;;;19.90;14.50;;;33.00;18.30;;;;;;7381485;19;20376;-43
2022/03/28 10:05:13;;;;;;;21.53;16.33;;;33.00;18.00;;;;;;7365698;19;20404;-43
2022/03/28 10:07:42;;;;;;;21.23;15.10;;;33.60;17.90;;;;;;7376563;19;20934;-44
2022/03/28 10:10:17;;;;;;;18.77;15.00;;;33.80;17.60;;;;;;7367654;19;21146;-44
2022/03/28 10:12:50;;;;;;;25.40;15.03;;;33.90;17.90;;;;;;7377527;19;20368;-44
2022/03/28 10:15:22;;;;;;;17.13;12.83;;;34.70;17.10;;;;;;7374681;19;20383;-44
2022/03/28 10:17:53;;;;;;;18.90;14.10;;;35.00;17.10;;;;;;7372776;19;20400;-44
2022/03/28 10:20:25;;;;;;;20.30;13.80;;;35.60;16.50;;;;;;7376662;19;20373;-44
2022/03/28 10:22:57;;;;;;;15.77;13.83;;;36.00;16.30;;;;;;7379288;19;20759;-44
2022/03/28 10:25:27;;;;;;;20.10;15.10;;;36.20;16.20;;;;;;7376787;19;20403;-44
2022/03/28 10:27:57;;;;;;;19.07;14.37;;;36.00;16.40;;;;;;7378565;19;20444;-44
2022/03/28 10:30:31;;;;;;;21.33;15.40;;;36.20;16.30;;;;;;7375219;19;21021;-43
2022/03/28 10:33:11;;;;;;;26.50;16.20;;;36.40;16.10;;;;;;7376321;19;20380;-44
2022/03/28 10:35:58;;;;;;;19.40;14.23;;;37.10;15.90;;;;;;7378541;19;21065;-44
2022/03/28 10:38:28;;;;;;;20.60;15.67;;;37.60;15.70;;;;;;7377559;19;21017;-44
2022/03/28 10:40:59;;;;;;;20.10;15.20;;;37.70;15.60;;;;;;7374087;19;20948;-44
2022/03/28 10:43:32;;;;;;;19.17;14.60;;;38.10;15.10;;;;;;7379472;19;20373;-43
2022/03/28 10:46:03;;;;;;;16.77;14.40;;;38.50;15.30;;;;;;7379141;19;20400;-44
2022/03/28 10:48:41;;;;;;;19.23;15.70;;;38.50;15.10;;;;;;7376722;19;20400;-44
2022/03/28 10:51:14;;;;;;;19.60;15.33;;;38.90;14.70;;;;;;7376178;19;20822;-44
2022/03/28 10:53:48;;;;;;;18.47;13.60;;;39.20;14.60;;;;;;7378320;19;20371;-44
2022/03/28 10:56:21;;;;;;;21.27;15.90;;;39.00;14.60;;;;;;7377999;19;20786;-44
2022/03/28 10:58:55;;;;;;;19.43;14.93;;;39.80;14.30;;;;;;7378837;19;20459;-44
2022/03/28 11:01:31;;;;;;;20.43;15.07;;;40.10;14.10;;;;;;7373215;19;20364;-43
2022/03/28 11:04:19;;;;;;;20.20;15.13;;;40.30;13.90;;;;;;7369331;19;20463;-45
2022/03/28 11:06:59;;;;;;;19.40;15.80;;;40.00;14.00;;;;;;7375926;19;20372;-44
2022/03/28 11:09:50;;;;;;;16.90;14.73;;;39.10;14.60;;;;;;7360402;19;20994;-44
2022/03/28 11:12:22;;;;;;;19.27;15.10;;;39.40;14.00;;;;;;7376162;19;20930;-44
2022/03/28 11:15:00;;;;;;;17.40;13.87;;;40.40;13.60;;;;;;7374411;19;20369;-44
2022/03/28 11:17:34;;;;;;;20.50;15.10;;;41.10;13.10;;;;;;7378621;19;20372;-44
2022/03/28 11:20:15;;;;;;;18.43;14.37;;;41.40;13.00;;;;;;7374724;19;20406;-45
2022/03/28 11:22:55;;;;;;;17.87;15.00;;;41.10;12.80;;;;;;7372821;19;20372;-44
2022/03/28 11:25:46;;;;;;;21.30;13.70;;;41.10;12.70;;;;;;7375201;19;20926;-44
2022/03/28 11:28:26;;;;;;;17.63;12.80;;;41.10;12.50;;;;;;7352191;19;20392;-44
2022/03/28 11:31:00;;;;;;;18.43;13.60;;;41.40;12.40;;;;;;7368868;19;20408;-45
2022/03/28 11:33:51;;;;;;;19.20;13.37;;;42.20;12.60;;;;;;7372163;19;20380;-44
2022/03/28 11:36:24;;;;;;;18.50;14.70;;;42.30;11.80;;;;;;7368046;19;20747;-45
2022/03/28 11:38:59;;;;;;;18.00;14.70;;;42.10;11.80;;;;;;7366560;19;20368;-45
2022/03/28 11:41:30;;;;;;;17.63;14.63;;;42.00;11.90;;;;;;7363939;19;20919;-45
2022/03/28 11:44:00;;;;;;;16.80;14.63;;;42.20;11.80;;;;;;7361440;19;20416;-45
2022/03/28 11:46:33;;;;;;;19.37;15.40;;;42.60;11.60;;;;;;7369009;19;20929;-45
2022/03/28 11:49:07;;;;;;;18.50;14.77;;;42.30;11.60;;;;;;7361546;19;20380;-45
2022/03/28 11:51:41;;;;;;;17.10;14.57;;;42.20;11.90;;;;;;7370907;19;20368;-45
2022/03/28 11:54:18;;;;;;;16.63;14.60;;;42.50;11.80;;;;;;7370458;19;20950;-45
2022/03/28 11:59:40;;;;;;;21.23;15.07;;;42.10;11.70;;;;;;7362383;19;20431;-43
2022/03/28 12:02:10;;;;;;;17.43;14.57;;;41.70;11.90;;;;;;7358604;19;20759;-43
2022/03/28 12:04:46;;;;;;;18.07;14.27;;;41.50;12.10;;;;;;7359840;19;20375;-44
2022/03/28 12:07:16;;;;;;;16.03;14.00;;;42.30;12.10;;;;;;7371711;19;20380;-44
2022/03/28 12:09:48;;;;;;;18.50;14.60;;;42.80;11.80;;;;;;7368674;19;20388;-43
2022/03/28 12:12:18;;;;;;;19.20;15.67;;;42.90;11.60;;;;;;7367653;19;20400;-43
2022/03/28 12:14:48;;;;;;;14.73;13.13;;;43.20;11.60;;;;;;7370981;19;20905;-44
2022/03/28 12:17:27;;;;;;;17.47;14.10;;;42.90;11.80;;;;;;7373316;19;20387;-43
2022/03/28 12:20:05;;;;;;;20.37;15.50;;;42.90;11.70;;;;;;7369023;19;20376;-43
2022/03/28 12:22:46;;;;;;;19.20;14.27;;;42.40;12.00;;;;;;7369934;19;20392;-43
2022/03/28 12:25:30;;;;;;;24.93;16.50;;;42.30;12.10;;;;;;7371322;19;20488;-43
2022/03/28 12:28:03;;;;;;;21.83;16.20;;;41.50;12.80;;;;;;7368723;19;20384;-43
2022/03/28 12:30:35;;;;;;;37.10;17.37;;;40.90;13.30;;;;;;7364917;19;20755;-43
2022/03/28 12:33:17;;;;;;;17.37;14.73;;;41.50;12.90;;;;;;7359616;19;20477;-43
2022/03/28 12:35:49;;;;;;;20.13;17.00;;;42.10;12.60;;;;;;7375267;19;20368;-44
2022/03/28 12:38:20;;;;;;;19.90;14.70;;;41.00;13.00;;;;;;7361314;19;20365;-43
2022/03/28 12:40:56;;;;;;;29.87;15.80;;;41.00;13.20;;;;;;7360025;19;20404;-43
2022/03/28 12:43:28;;;;;;;19.67;15.30;;;41.20;13.30;;;;;;7368928;19;21412;-43
2022/03/28 12:46:02;;;;;;;23.80;14.03;;;41.30;13.30;;;;;;7375096;19;20436;-44
2022/03/28 12:48:43;;;;;;;21.03;15.53;;;41.70;13.20;;;;;;7371434;19;20929;-44
2022/03/28 12:51:24;;;;;;;23.20;14.73;;;42.20;12.80;;;;;;7373711;19;20912;-44
2022/03/28 12:54:02;;;;;;;15.90;14.20;;;42.30;12.80;;;;;;7374825;19;20379;-44
2022/03/28 12:56:44;;;;;;;16.80;13.83;;;42.20;12.60;;;;;;7377387;19;20367;-44
2022/03/28 12:59:19;;;;;;;18.53;13.70;;;41.80;12.90;;;;;;7378311;19;20435;-43
2022/03/28 13:01:52;;;;;;;17.57;13.67;;;41.00;13.60;;;;;;7378274;19;20465;-44
2022/03/28 13:04:24;;;;;;;16.17;13.03;;;41.10;13.30;;;;;;7370764;19;20917;-44
2022/03/28 13:07:02;;;;;;;21.03;14.53;;;40.70;13.50;;;;;;7370368;19;20396;-43
2022/03/28 13:09:32;;;;;;;14.10;12.40;;;40.50;13.60;;;;;;7367449;19;20389;-45